sensor_id;sensor_type;location;lat;lon;timestamp;P1;durP1;ratioP1;P2;durP2;ratioP2
53313;SDS011;39202;51.468;7.146;2023-04-07T00:01:37;0.90;;;0.90;;
53313;SDS011;39202;51.468;7.146;2023-04-07T00:06:40;0.98;;;0.98;;
53313;SDS011;39202;51.468;7.146;2023-04-07T00:11:42;1.00;;;1.00;;
53313;SDS011;39202;51.468;7.146;2023-04-07T00:16:44;1.00;;;1.00;;
53313;SDS011;39202;51.468;7.146;2023-04-07T00:21:47;1.02;;;1.02;;
53313;SDS011;39202;51.468;7.146;2023-04-07T00:26:49;1.13;;;1.13;;
53313;SDS011;39202;51.468;7.146;2023-04-07T00:31:50;0.80;;;0.80;;
53313;SDS011;39202;51.468;7.146;2023-04-07T00:36:53;0.93;;;0.93;;
53313;SDS011;39202;51.468;7.146;2023-04-07T00:41:55;0.90;;;0.90;;
53313;SDS011;39202;51.468;7.146;2023-04-07T00:46:57;0.95;;;0.95;;
53313;SDS011;39202;51.468;7.146;2023-04-07T00:52:01;0.90;;;0.90;;
53313;SDS011;39202;51.468;7.146;2023-04-07T00:57:03;0.82;;;0.82;;
53313;SDS011;39202;51.468;7.146;2023-04-07T01:02:07;0.93;;;0.93;;
53313;SDS011;39202;51.468;7.146;2023-04-07T01:07:17;0.80;;;0.80;;
53313;SDS011;39202;51.468;7.146;2023-04-07T01:12:23;1.00;;;1.00;;
53313;SDS011;39202;51.468;7.146;2023-04-07T01:17:40;1.00;;;1.00;;
53313;SDS011;39202;51.468;7.146;2023-04-07T01:22:49;1.00;;;1.00;;
53313;SDS011;39202;51.468;7.146;2023-04-07T01:27:59;1.00;;;1.00;;
53313;SDS011;39202;51.468;7.146;2023-04-07T01:33:15;0.70;;;0.70;;
53313;SDS011;39202;51.468;7.146;2023-04-07T01:38:19;0.82;;;0.82;;
53313;SDS011;39202;51.468;7.146;2023-04-07T01:43:21;0.70;;;0.70;;
53313;SDS011;39202;51.468;7.146;2023-04-07T01:48:25;0.88;;;0.88;;
53313;SDS011;39202;51.468;7.146;2023-04-07T01:53:27;0.85;;;0.85;;
53313;SDS011;39202;51.468;7.146;2023-04-07T01:58:30;0.80;;;0.80;;
53313;SDS011;39202;51.468;7.146;2023-04-07T02:03:35;0.77;;;0.77;;
53313;SDS011;39202;51.468;7.146;2023-04-07T02:13:43;0.70;;;0.70;;
53313;SDS011;39202;51.468;7.146;2023-04-07T02:18:47;0.90;;;0.90;;
53313;SDS011;39202;51.468;7.146;2023-04-07T02:23:50;1.00;;;0.95;;
53313;SDS011;39202;51.468;7.146;2023-04-07T02:28:51;0.80;;;0.80;;
53313;SDS011;39202;51.468;7.146;2023-04-07T02:33:54;0.70;;;0.70;;
53313;SDS011;39202;51.468;7.146;2023-04-07T02:38:57;0.80;;;0.80;;
53313;SDS011;39202;51.468;7.146;2023-04-07T02:43:58;0.80;;;0.80;;
53313;SDS011;39202;51.468;7.146;2023-04-07T02:49:01;0.60;;;0.60;;
53313;SDS011;39202;51.468;7.146;2023-04-07T02:54:03;0.98;;;0.98;;
53313;SDS011;39202;51.468;7.146;2023-04-07T02:59:05;0.95;;;0.95;;
53313;SDS011;39202;51.468;7.146;2023-04-07T03:04:08;0.65;;;0.65;;
53313;SDS011;39202;51.468;7.146;2023-04-07T03:09:10;0.80;;;0.80;;
53313;SDS011;39202;51.468;7.146;2023-04-07T03:14:12;0.60;;;0.60;;
53313;SDS011;39202;51.468;7.146;2023-04-07T03:19:16;0.95;;;0.95;;
53313;SDS011;39202;51.468;7.146;2023-04-07T03:24:18;0.68;;;0.68;;
53313;SDS011;39202;51.468;7.146;2023-04-07T03:29:20;0.65;;;0.65;;
53313;SDS011;39202;51.468;7.146;2023-04-07T03:34:23;0.75;;;0.75;;
53313;SDS011;39202;51.468;7.146;2023-04-07T03:39:24;0.70;;;0.70;;
53313;SDS011;39202;51.468;7.146;2023-04-07T03:44:26;0.75;;;0.75;;
53313;SDS011;39202;51.468;7.146;2023-04-07T03:49:29;0.80;;;0.80;;
53313;SDS011;39202;51.468;7.146;2023-04-07T03:54:31;0.75;;;0.75;;
53313;SDS011;39202;51.468;7.146;2023-04-07T03:59:34;0.60;;;0.60;;
53313;SDS011;39202;51.468;7.146;2023-04-07T04:04:37;0.70;;;0.70;;
53313;SDS011;39202;51.468;7.146;2023-04-07T04:09:40;0.70;;;0.70;;
53313;SDS011;39202;51.468;7.146;2023-04-07T04:14:42;0.70;;;0.70;;
53313;SDS011;39202;51.468;7.146;2023-04-07T04:19:45;0.70;;;0.70;;
53313;SDS011;39202;51.468;7.146;2023-04-07T04:24:46;0.75;;;0.75;;
53313;SDS011;39202;51.468;7.146;2023-04-07T04:29:48;0.70;;;0.70;;
53313;SDS011;39202;51.468;7.146;2023-04-07T04:34:52;0.85;;;0.85;;
53313;SDS011;39202;51.468;7.146;2023-04-07T04:39:53;0.57;;;0.57;;
53313;SDS011;39202;51.468;7.146;2023-04-07T04:44:55;0.77;;;0.77;;
53313;SDS011;39202;51.468;7.146;2023-04-07T04:49:58;0.68;;;0.68;;
53313;SDS011;39202;51.468;7.146;2023-04-07T04:55:00;0.60;;;0.60;;
53313;SDS011;39202;51.468;7.146;2023-04-07T05:00:03;0.60;;;0.60;;
53313;SDS011;39202;51.468;7.146;2023-04-07T05:05:08;0.70;;;0.70;;
53313;SDS011;39202;51.468;7.146;2023-04-07T05:10:10;0.70;;;0.70;;
53313;SDS011;39202;51.468;7.146;2023-04-07T05:15:11;0.55;;;0.55;;
53313;SDS011;39202;51.468;7.146;2023-04-07T05:20:15;0.70;;;0.70;;
53313;SDS011;39202;51.468;7.146;2023-04-07T05:25:17;0.57;;;0.57;;
53313;SDS011;39202;51.468;7.146;2023-04-07T05:30:19;0.80;;;0.80;;
53313;SDS011;39202;51.468;7.146;2023-04-07T05:35:22;0.77;;;0.77;;
53313;SDS011;39202;51.468;7.146;2023-04-07T05:40:24;0.60;;;0.60;;
53313;SDS011;39202;51.468;7.146;2023-04-07T05:45:26;0.60;;;0.60;;
53313;SDS011;39202;51.468;7.146;2023-04-07T05:50:29;0.60;;;0.60;;
53313;SDS011;39202;51.468;7.146;2023-04-07T05:55:31;0.60;;;0.60;;
53313;SDS011;39202;51.468;7.146;2023-04-07T06:00:32;0.60;;;0.60;;
53313;SDS011;39202;51.468;7.146;2023-04-07T06:05:35;0.60;;;0.60;;
53313;SDS011;39202;51.468;7.146;2023-04-07T06:10:42;0.50;;;0.50;;
53313;SDS011;39202;51.468;7.146;2023-04-07T06:15:44;0.52;;;0.52;;
53313;SDS011;39202;51.468;7.146;2023-04-07T06:20:47;0.50;;;0.50;;
53313;SDS011;39202;51.468;7.146;2023-04-07T06:25:49;0.70;;;0.70;;
53313;SDS011;39202;51.468;7.146;2023-04-07T06:30:52;0.60;;;0.60;;
53313;SDS011;39202;51.468;7.146;2023-04-07T06:35:55;0.50;;;0.50;;
53313;SDS011;39202;51.468;7.146;2023-04-07T06:40:57;0.68;;;0.68;;
53313;SDS011;39202;51.468;7.146;2023-04-07T06:45:59;0.40;;;0.40;;
53313;SDS011;39202;51.468;7.146;2023-04-07T06:51:02;0.70;;;0.70;;
53313;SDS011;39202;51.468;7.146;2023-04-07T06:56:04;0.50;;;0.50;;
53313;SDS011;39202;51.468;7.146;2023-04-07T07:01:07;0.52;;;0.52;;
53313;SDS011;39202;51.468;7.146;2023-04-07T07:06:10;0.57;;;0.57;;
53313;SDS011;39202;51.468;7.146;2023-04-07T07:11:12;0.50;;;0.50;;
53313;SDS011;39202;51.468;7.146;2023-04-07T07:16:13;0.45;;;0.45;;
53313;SDS011;39202;51.468;7.146;2023-04-07T07:21:17;0.47;;;0.47;;
53313;SDS011;39202;51.468;7.146;2023-04-07T07:26:19;0.60;;;0.60;;
53313;SDS011;39202;51.468;7.146;2023-04-07T07:31:21;0.50;;;0.50;;
53313;SDS011;39202;51.468;7.146;2023-04-07T07:36:24;0.57;;;0.57;;
53313;SDS011;39202;51.468;7.146;2023-04-07T07:41:26;0.50;;;0.50;;
53313;SDS011;39202;51.468;7.146;2023-04-07T07:46:28;0.47;;;0.47;;
53313;SDS011;39202;51.468;7.146;2023-04-07T07:51:31;0.50;;;0.50;;
53313;SDS011;39202;51.468;7.146;2023-04-07T07:56:33;0.50;;;0.50;;
53313;SDS011;39202;51.468;7.146;2023-04-07T08:01:35;0.50;;;0.50;;
53313;SDS011;39202;51.468;7.146;2023-04-07T08:06:38;0.55;;;0.55;;
53313;SDS011;39202;51.468;7.146;2023-04-07T08:11:41;1.15;;;0.55;;
53313;SDS011;39202;51.468;7.146;2023-04-07T08:16:43;0.60;;;0.60;;
53313;SDS011;39202;51.468;7.146;2023-04-07T08:21:46;0.70;;;0.70;;
53313;SDS011;39202;51.468;7.146;2023-04-07T08:26:48;0.70;;;0.70;;
53313;SDS011;39202;51.468;7.146;2023-04-07T08:31:49;0.47;;;0.47;;
53313;SDS011;39202;51.468;7.146;2023-04-07T08:36:52;0.60;;;0.60;;
53313;SDS011;39202;51.468;7.146;2023-04-07T08:41:54;0.50;;;0.50;;
53313;SDS011;39202;51.468;7.146;2023-04-07T08:46:57;0.50;;;0.50;;
53313;SDS011;39202;51.468;7.146;2023-04-07T08:52:02;0.60;;;0.60;;
53313;SDS011;39202;51.468;7.146;2023-04-07T08:57:09;0.70;;;0.70;;
53313;SDS011;39202;51.468;7.146;2023-04-07T09:02:13;0.70;;;0.70;;
53313;SDS011;39202;51.468;7.146;2023-04-07T09:07:17;0.60;;;0.60;;
53313;SDS011;39202;51.468;7.146;2023-04-07T09:12:18;0.50;;;0.50;;
53313;SDS011;39202;51.468;7.146;2023-04-07T09:17:20;0.75;;;0.75;;
53313;SDS011;39202;51.468;7.146;2023-04-07T09:22:37;0.68;;;0.68;;
53313;SDS011;39202;51.468;7.146;2023-04-07T09:27:39;2.40;;;1.00;;
53313;SDS011;39202;51.468;7.146;2023-04-07T09:32:41;1.15;;;1.15;;
53313;SDS011;39202;51.468;7.146;2023-04-07T09:37:44;1.10;;;1.00;;
53313;SDS011;39202;51.468;7.146;2023-04-07T09:43:02;1.25;;;1.20;;
53313;SDS011;39202;51.468;7.146;2023-04-07T09:48:05;1.10;;;1.10;;
53313;SDS011;39202;51.468;7.146;2023-04-07T09:53:09;1.10;;;1.10;;
53313;SDS011;39202;51.468;7.146;2023-04-07T09:58:11;1.00;;;1.00;;
53313;SDS011;39202;51.468;7.146;2023-04-07T10:03:14;1.13;;;1.13;;
53313;SDS011;39202;51.468;7.146;2023-04-07T10:08:17;1.30;;;1.20;;
53313;SDS011;39202;51.468;7.146;2023-04-07T10:13:19;1.17;;;1.10;;
53313;SDS011;39202;51.468;7.146;2023-04-07T10:18:23;1.30;;;1.20;;
53313;SDS011;39202;51.468;7.146;2023-04-07T10:23:39;1.10;;;1.10;;
53313;SDS011;39202;51.468;7.146;2023-04-07T10:28:50;1.20;;;1.20;;
53313;SDS011;39202;51.468;7.146;2023-04-07T10:33:55;1.50;;;1.40;;
53313;SDS011;39202;51.468;7.146;2023-04-07T10:44:45;1.38;;;1.27;;
53313;SDS011;39202;51.468;7.146;2023-04-07T10:55:29;1.10;;;1.10;;
53313;SDS011;39202;51.468;7.146;2023-04-07T11:00:32;1.40;;;1.30;;
53313;SDS011;39202;51.468;7.146;2023-04-07T11:05:34;1.00;;;1.00;;
53313;SDS011;39202;51.468;7.146;2023-04-07T11:10:39;1.30;;;1.08;;
53313;SDS011;39202;51.468;7.146;2023-04-07T11:15:41;1.00;;;1.00;;
53313;SDS011;39202;51.468;7.146;2023-04-07T11:20:44;1.20;;;1.20;;
53313;SDS011;39202;51.468;7.146;2023-04-07T11:25:49;1.20;;;1.20;;
53313;SDS011;39202;51.468;7.146;2023-04-07T11:30:52;1.10;;;1.10;;
53313;SDS011;39202;51.468;7.146;2023-04-07T11:35:56;1.20;;;1.20;;
53313;SDS011;39202;51.468;7.146;2023-04-07T11:41:09;1.50;;;1.40;;
53313;SDS011;39202;51.468;7.146;2023-04-07T11:46:12;1.40;;;1.30;;
53313;SDS011;39202;51.468;7.146;2023-04-07T11:51:15;1.38;;;1.35;;
53313;SDS011;39202;51.468;7.146;2023-04-07T11:56:19;1.17;;;1.17;;
53313;SDS011;39202;51.468;7.146;2023-04-07T12:01:21;1.40;;;1.30;;
53313;SDS011;39202;51.468;7.146;2023-04-07T12:06:27;1.10;;;1.10;;
53313;SDS011;39202;51.468;7.146;2023-04-07T12:11:31;1.80;;;1.42;;
53313;SDS011;39202;51.468;7.146;2023-04-07T12:16:36;1.35;;;1.25;;
53313;SDS011;39202;51.468;7.146;2023-04-07T12:21:38;1.23;;;1.13;;
53313;SDS011;39202;51.468;7.146;2023-04-07T12:26:41;1.55;;;1.45;;
53313;SDS011;39202;51.468;7.146;2023-04-07T12:31:43;1.40;;;1.40;;
53313;SDS011;39202;51.468;7.146;2023-04-07T12:36:44;1.70;;;1.60;;
53313;SDS011;39202;51.468;7.146;2023-04-07T12:41:47;1.88;;;1.50;;
53313;SDS011;39202;51.468;7.146;2023-04-07T12:46:52;1.50;;;1.40;;
53313;SDS011;39202;51.468;7.146;2023-04-07T12:51:53;1.60;;;1.50;;
53313;SDS011;39202;51.468;7.146;2023-04-07T12:56:56;1.73;;;1.50;;
53313;SDS011;39202;51.468;7.146;2023-04-07T13:01:58;2.22;;;1.67;;
53313;SDS011;39202;51.468;7.146;2023-04-07T13:07:01;2.63;;;1.50;;
53313;SDS011;39202;51.468;7.146;2023-04-07T13:12:04;1.65;;;1.30;;
53313;SDS011;39202;51.468;7.146;2023-04-07T13:17:06;1.63;;;1.50;;
53313;SDS011;39202;51.468;7.146;2023-04-07T13:22:08;1.95;;;1.77;;
53313;SDS011;39202;51.468;7.146;2023-04-07T13:27:11;1.55;;;1.40;;
53313;SDS011;39202;51.468;7.146;2023-04-07T13:32:13;1.40;;;1.30;;
53313;SDS011;39202;51.468;7.146;2023-04-07T13:37:16;1.48;;;1.30;;
53313;SDS011;39202;51.468;7.146;2023-04-07T13:42:19;1.35;;;1.25;;
53313;SDS011;39202;51.468;7.146;2023-04-07T13:47:21;1.30;;;1.20;;
53313;SDS011;39202;51.468;7.146;2023-04-07T13:52:24;1.83;;;1.65;;
53313;SDS011;39202;51.468;7.146;2023-04-07T13:57:27;1.65;;;1.50;;
53313;SDS011;39202;51.468;7.146;2023-04-07T14:02:28;1.85;;;1.75;;
53313;SDS011;39202;51.468;7.146;2023-04-07T14:07:31;1.73;;;1.60;;
53313;SDS011;39202;51.468;7.146;2023-04-07T14:12:34;1.58;;;1.48;;
53313;SDS011;39202;51.468;7.146;2023-04-07T14:17:37;1.55;;;1.42;;
53313;SDS011;39202;51.468;7.146;2023-04-07T14:22:38;2.45;;;1.67;;
53313;SDS011;39202;51.468;7.146;2023-04-07T14:27:41;1.88;;;1.60;;
53313;SDS011;39202;51.468;7.146;2023-04-07T14:32:43;1.70;;;1.60;;
53313;SDS011;39202;51.468;7.146;2023-04-07T14:37:45;1.50;;;1.30;;
53313;SDS011;39202;51.468;7.146;2023-04-07T14:42:48;2.17;;;1.48;;
53313;SDS011;39202;51.468;7.146;2023-04-07T14:47:50;2.17;;;1.40;;
53313;SDS011;39202;51.468;7.146;2023-04-07T14:52:51;1.60;;;1.40;;
53313;SDS011;39202;51.468;7.146;2023-04-07T14:57:54;1.60;;;1.50;;
53313;SDS011;39202;51.468;7.146;2023-04-07T15:02:56;1.60;;;1.50;;
53313;SDS011;39202;51.468;7.146;2023-04-07T15:07:58;1.90;;;1.50;;
53313;SDS011;39202;51.468;7.146;2023-04-07T15:13:01;1.58;;;1.48;;
53313;SDS011;39202;51.468;7.146;2023-04-07T15:18:03;1.70;;;1.52;;
53313;SDS011;39202;51.468;7.146;2023-04-07T15:23:05;1.60;;;1.50;;
53313;SDS011;39202;51.468;7.146;2023-04-07T15:28:08;2.47;;;1.60;;
53313;SDS011;39202;51.468;7.146;2023-04-07T15:33:10;1.48;;;1.38;;
53313;SDS011;39202;51.468;7.146;2023-04-07T15:38:12;1.55;;;1.45;;
53313;SDS011;39202;51.468;7.146;2023-04-07T15:43:15;1.55;;;1.45;;
53313;SDS011;39202;51.468;7.146;2023-04-07T15:48:16;1.10;;;1.10;;
53313;SDS011;39202;51.468;7.146;2023-04-07T15:53:18;1.48;;;1.38;;
53313;SDS011;39202;51.468;7.146;2023-04-07T15:58:21;1.50;;;1.40;;
53313;SDS011;39202;51.468;7.146;2023-04-07T16:03:23;1.48;;;1.20;;
53313;SDS011;39202;51.468;7.146;2023-04-07T16:08:26;1.30;;;1.20;;
53313;SDS011;39202;51.468;7.146;2023-04-07T16:13:29;1.58;;;1.30;;
53313;SDS011;39202;51.468;7.146;2023-04-07T16:18:31;1.40;;;1.30;;
53313;SDS011;39202;51.468;7.146;2023-04-07T16:23:33;1.35;;;1.25;;
53313;SDS011;39202;51.468;7.146;2023-04-07T16:28:36;2.03;;;1.63;;
53313;SDS011;39202;51.468;7.146;2023-04-07T16:33:40;1.30;;;1.20;;
53313;SDS011;39202;51.468;7.146;2023-04-07T16:38:42;1.45;;;1.35;;
53313;SDS011;39202;51.468;7.146;2023-04-07T16:43:45;1.52;;;1.20;;
53313;SDS011;39202;51.468;7.146;2023-04-07T16:48:47;1.40;;;1.30;;
53313;SDS011;39202;51.468;7.146;2023-04-07T16:53:49;1.23;;;1.20;;
53313;SDS011;39202;51.468;7.146;2023-04-07T16:58:52;1.40;;;1.30;;
53313;SDS011;39202;51.468;7.146;2023-04-07T17:03:55;1.55;;;1.40;;
53313;SDS011;39202;51.468;7.146;2023-04-07T17:08:56;1.50;;;1.30;;
53313;SDS011;39202;51.468;7.146;2023-04-07T17:13:59;1.08;;;1.08;;
53313;SDS011;39202;51.468;7.146;2023-04-07T17:19:01;1.40;;;1.30;;
53313;SDS011;39202;51.468;7.146;2023-04-07T17:24:03;1.20;;;1.20;;
53313;SDS011;39202;51.468;7.146;2023-04-07T17:29:07;1.23;;;1.23;;
53313;SDS011;39202;51.468;7.146;2023-04-07T17:34:09;1.30;;;1.02;;
53313;SDS011;39202;51.468;7.146;2023-04-07T17:39:11;1.23;;;1.20;;
53313;SDS011;39202;51.468;7.146;2023-04-07T17:44:14;1.10;;;1.10;;
53313;SDS011;39202;51.468;7.146;2023-04-07T17:49:16;1.23;;;1.02;;
53313;SDS011;39202;51.468;7.146;2023-04-07T17:54:18;1.30;;;1.20;;
53313;SDS011;39202;51.468;7.146;2023-04-07T17:59:21;1.20;;;1.20;;
53313;SDS011;39202;51.468;7.146;2023-04-07T18:04:23;1.30;;;1.20;;
53313;SDS011;39202;51.468;7.146;2023-04-07T18:09:25;1.20;;;1.10;;
53313;SDS011;39202;51.468;7.146;2023-04-07T18:14:29;1.20;;;1.20;;
53313;SDS011;39202;51.468;7.146;2023-04-07T18:19:31;1.00;;;1.00;;
53313;SDS011;39202;51.468;7.146;2023-04-07T18:24:32;1.30;;;1.25;;
53313;SDS011;39202;51.468;7.146;2023-04-07T18:29:36;1.27;;;1.20;;
53313;SDS011;39202;51.468;7.146;2023-04-07T18:34:37;1.30;;;1.20;;
53313;SDS011;39202;51.468;7.146;2023-04-07T18:39:40;1.15;;;1.15;;
53313;SDS011;39202;51.468;7.146;2023-04-07T18:44:43;1.27;;;1.17;;
53313;SDS011;39202;51.468;7.146;2023-04-07T18:49:45;1.40;;;1.30;;
53313;SDS011;39202;51.468;7.146;2023-04-07T18:54:47;1.13;;;1.13;;
53313;SDS011;39202;51.468;7.146;2023-04-07T18:59:50;1.13;;;1.13;;
53313;SDS011;39202;51.468;7.146;2023-04-07T19:04:52;1.33;;;1.02;;
53313;SDS011;39202;51.468;7.146;2023-04-07T19:09:54;1.05;;;1.05;;
53313;SDS011;39202;51.468;7.146;2023-04-07T19:14:57;1.00;;;1.00;;
53313;SDS011;39202;51.468;7.146;2023-04-07T19:19:59;1.10;;;1.10;;
53313;SDS011;39202;51.468;7.146;2023-04-07T19:25:01;0.90;;;0.90;;
53313;SDS011;39202;51.468;7.146;2023-04-07T19:30:05;1.15;;;1.05;;
53313;SDS011;39202;51.468;7.146;2023-04-07T19:35:08;1.17;;;1.10;;
53313;SDS011;39202;51.468;7.146;2023-04-07T19:40:10;1.00;;;1.00;;
53313;SDS011;39202;51.468;7.146;2023-04-07T19:45:13;0.90;;;0.90;;
53313;SDS011;39202;51.468;7.146;2023-04-07T19:50:15;1.10;;;1.10;;
53313;SDS011;39202;51.468;7.146;2023-04-07T19:55:17;1.20;;;1.20;;
53313;SDS011;39202;51.468;7.146;2023-04-07T20:00:20;1.23;;;1.17;;
53313;SDS011;39202;51.468;7.146;2023-04-07T20:05:22;1.10;;;1.10;;
53313;SDS011;39202;51.468;7.146;2023-04-07T20:10:24;1.13;;;1.13;;
53313;SDS011;39202;51.468;7.146;2023-04-07T20:15:27;1.15;;;1.10;;
53313;SDS011;39202;51.468;7.146;2023-04-07T20:20:29;0.90;;;0.90;;
53313;SDS011;39202;51.468;7.146;2023-04-07T20:25:30;1.00;;;1.00;;
53313;SDS011;39202;51.468;7.146;2023-04-07T20:30:35;1.00;;;1.00;;
53313;SDS011;39202;51.468;7.146;2023-04-07T20:35:37;1.30;;;1.20;;
53313;SDS011;39202;51.468;7.146;2023-04-07T20:40:39;1.15;;;1.10;;
53313;SDS011;39202;51.468;7.146;2023-04-07T20:45:42;1.00;;;1.00;;
53313;SDS011;39202;51.468;7.146;2023-04-07T20:50:45;1.05;;;1.00;;
53313;SDS011;39202;51.468;7.146;2023-04-07T20:55:47;1.05;;;1.05;;
53313;SDS011;39202;51.468;7.146;2023-04-07T21:00:54;1.00;;;1.00;;
53313;SDS011;39202;51.468;7.146;2023-04-07T21:05:56;1.00;;;1.00;;
53313;SDS011;39202;51.468;7.146;2023-04-07T21:10:58;0.88;;;0.88;;
53313;SDS011;39202;51.468;7.146;2023-04-07T21:16:01;0.90;;;0.90;;
53313;SDS011;39202;51.468;7.146;2023-04-07T21:21:04;0.85;;;0.85;;
53313;SDS011;39202;51.468;7.146;2023-04-07T21:26:07;1.00;;;1.00;;
53313;SDS011;39202;51.468;7.146;2023-04-07T21:31:10;0.93;;;0.93;;
53313;SDS011;39202;51.468;7.146;2023-04-07T21:36:20;0.90;;;0.90;;
53313;SDS011;39202;51.468;7.146;2023-04-07T21:41:22;1.10;;;1.10;;
53313;SDS011;39202;51.468;7.146;2023-04-07T21:46:25;0.85;;;0.85;;
53313;SDS011;39202;51.468;7.146;2023-04-07T21:51:27;1.00;;;1.00;;
53313;SDS011;39202;51.468;7.146;2023-04-07T21:56:29;1.08;;;1.08;;
53313;SDS011;39202;51.468;7.146;2023-04-07T22:01:32;1.13;;;1.00;;
53313;SDS011;39202;51.468;7.146;2023-04-07T22:06:34;1.05;;;1.05;;
53313;SDS011;39202;51.468;7.146;2023-04-07T22:11:36;0.90;;;0.90;;
53313;SDS011;39202;51.468;7.146;2023-04-07T22:16:39;0.90;;;0.90;;
53313;SDS011;39202;51.468;7.146;2023-04-07T22:21:41;0.90;;;0.90;;
53313;SDS011;39202;51.468;7.146;2023-04-07T22:26:42;0.90;;;0.90;;
53313;SDS011;39202;51.468;7.146;2023-04-07T22:31:45;1.27;;;1.27;;
53313;SDS011;39202;51.468;7.146;2023-04-07T22:36:47;1.00;;;1.00;;
53313;SDS011;39202;51.468;7.146;2023-04-07T22:41:49;1.00;;;1.00;;
53313;SDS011;39202;51.468;7.146;2023-04-07T22:46:52;1.17;;;1.17;;
53313;SDS011;39202;51.468;7.146;2023-04-07T22:51:55;0.93;;;0.93;;
53313;SDS011;39202;51.468;7.146;2023-04-07T22:56:56;1.10;;;1.10;;
53313;SDS011;39202;51.468;7.146;2023-04-07T23:01:59;1.00;;;1.00;;
53313;SDS011;39202;51.468;7.146;2023-04-07T23:07:01;0.90;;;0.90;;
53313;SDS011;39202;51.468;7.146;2023-04-07T23:12:03;1.10;;;1.10;;
53313;SDS011;39202;51.468;7.146;2023-04-07T23:17:06;1.08;;;1.08;;
53313;SDS011;39202;51.468;7.146;2023-04-07T23:22:08;1.25;;;1.25;;
53313;SDS011;39202;51.468;7.146;2023-04-07T23:27:09;1.17;;;1.17;;
53313;SDS011;39202;51.468;7.146;2023-04-07T23:32:12;1.10;;;1.10;;
53313;SDS011;39202;51.468;7.146;2023-04-07T23:37:15;1.20;;;1.20;;
53313;SDS011;39202;51.468;7.146;2023-04-07T23:42:16;1.10;;;1.10;;
53313;SDS011;39202;51.468;7.146;2023-04-07T23:47:19;1.00;;;1.00;;
53313;SDS011;39202;51.468;7.146;2023-04-07T23:52:21;1.00;;;1.00;;
53313;SDS011;39202;51.468;7.146;2023-04-07T23:57:23;1.00;;;1.00;;
